sensor_id;sensor_type;location;lat;lon;timestamp;temperature;humidity
23120;DHT22;11729;50.836;4.330;2023-03-31T00:02:04;13.50;99.90
23120;DHT22;11729;50.836;4.330;2023-03-31T00:04:41;13.50;99.90
23120;DHT22;11729;50.836;4.330;2023-03-31T00:07:13;13.40;99.90
23120;DHT22;11729;50.836;4.330;2023-03-31T00:09:40;13.30;99.90
23120;DHT22;11729;50.836;4.330;2023-03-31T00:12:11;13.30;99.90
23120;DHT22;11729;50.836;4.330;2023-03-31T00:14:38;13.20;99.90
23120;DHT22;11729;50.836;4.330;2023-03-31T00:17:04;13.30;99.90
23120;DHT22;11729;50.836;4.330;2023-03-31T00:19:29;13.20;99.90
23120;DHT22;11729;50.836;4.330;2023-03-31T00:21:58;13.20;99.90
23120;DHT22;11729;50.836;4.330;2023-03-31T00:24:27;13.10;99.90
23120;DHT22;11729;50.836;4.330;2023-03-31T00:27:00;13.00;99.90
23120;DHT22;11729;50.836;4.330;2023-03-31T00:29:26;13.10;99.90
23120;DHT22;11729;50.836;4.330;2023-03-31T00:31:52;13.00;99.90
23120;DHT22;11729;50.836;4.330;2023-03-31T00:34:18;12.80;99.90
23120;DHT22;11729;50.836;4.330;2023-03-31T00:36:43;12.80;99.90
23120;DHT22;11729;50.836;4.330;2023-03-31T00:39:14;12.70;99.90
23120;DHT22;11729;50.836;4.330;2023-03-31T00:41:41;12.60;99.90
23120;DHT22;11729;50.836;4.330;2023-03-31T00:44:18;12.50;99.90
23120;DHT22;11729;50.836;4.330;2023-03-31T00:47:05;12.50;99.90
23120;DHT22;11729;50.836;4.330;2023-03-31T00:49:50;12.50;99.90
23120;DHT22;11729;50.836;4.330;2023-03-31T00:52:31;12.50;99.90
23120;DHT22;11729;50.836;4.330;2023-03-31T00:55:13;12.50;99.90
23120;DHT22;11729;50.836;4.330;2023-03-31T00:57:42;12.50;99.90
23120;DHT22;11729;50.836;4.330;2023-03-31T01:00:11;12.40;99.90
23120;DHT22;11729;50.836;4.330;2023-03-31T01:02:54;12.30;99.90
23120;DHT22;11729;50.836;4.330;2023-03-31T01:05:31;12.40;99.90
23120;DHT22;11729;50.836;4.330;2023-03-31T01:07:58;12.40;99.90
23120;DHT22;11729;50.836;4.330;2023-03-31T01:10:25;12.30;99.90
23120;DHT22;11729;50.836;4.330;2023-03-31T01:12:53;12.30;99.90
23120;DHT22;11729;50.836;4.330;2023-03-31T01:15:20;12.20;99.90
23120;DHT22;11729;50.836;4.330;2023-03-31T01:17:46;12.20;99.90
23120;DHT22;11729;50.836;4.330;2023-03-31T01:46:00;12.00;99.90
23120;DHT22;11729;50.836;4.330;2023-03-31T01:51:33;12.00;99.90
23120;DHT22;11729;50.836;4.330;2023-03-31T01:54:20;12.10;99.90
23120;DHT22;11729;50.836;4.330;2023-03-31T01:59:45;12.10;99.90
23120;DHT22;11729;50.836;4.330;2023-03-31T02:02:34;12.10;99.90
23120;DHT22;11729;50.836;4.330;2023-03-31T02:05:33;12.10;99.90
23120;DHT22;11729;50.836;4.330;2023-03-31T02:08:06;12.10;99.90
23120;DHT22;11729;50.836;4.330;2023-03-31T02:10:34;12.10;99.90
23120;DHT22;11729;50.836;4.330;2023-03-31T02:13:01;11.90;99.90
23120;DHT22;11729;50.836;4.330;2023-03-31T02:15:32;11.80;99.90
23120;DHT22;11729;50.836;4.330;2023-03-31T02:18:01;11.80;99.90
23120;DHT22;11729;50.836;4.330;2023-03-31T02:20:28;11.80;99.90
23120;DHT22;11729;50.836;4.330;2023-03-31T02:22:57;11.90;99.90
23120;DHT22;11729;50.836;4.330;2023-03-31T02:25:35;11.80;99.90
23120;DHT22;11729;50.836;4.330;2023-03-31T02:28:11;11.80;99.90
23120;DHT22;11729;50.836;4.330;2023-03-31T02:30:48;11.80;99.90
23120;DHT22;11729;50.836;4.330;2023-03-31T02:33:15;11.80;99.90
23120;DHT22;11729;50.836;4.330;2023-03-31T02:35:42;11.80;99.90
23120;DHT22;11729;50.836;4.330;2023-03-31T02:38:07;11.80;99.90
23120;DHT22;11729;50.836;4.330;2023-03-31T02:40:33;11.90;99.90
23120;DHT22;11729;50.836;4.330;2023-03-31T02:43:00;11.80;99.90
23120;DHT22;11729;50.836;4.330;2023-03-31T02:45:52;11.90;99.90
23120;DHT22;11729;50.836;4.330;2023-03-31T02:48:19;12.00;99.90
23120;DHT22;11729;50.836;4.330;2023-03-31T02:51:19;12.00;99.90
23120;DHT22;11729;50.836;4.330;2023-03-31T03:02:07;12.10;99.90
23120;DHT22;11729;50.836;4.330;2023-03-31T03:10:02;12.10;99.90
23120;DHT22;11729;50.836;4.330;2023-03-31T03:15:20;11.90;99.90
23120;DHT22;11729;50.836;4.330;2023-03-31T03:17:47;12.00;99.90
23120;DHT22;11729;50.836;4.330;2023-03-31T03:20:18;11.80;99.90
23120;DHT22;11729;50.836;4.330;2023-03-31T03:22:44;11.90;99.90
23120;DHT22;11729;50.836;4.330;2023-03-31T03:25:12;11.80;99.90
23120;DHT22;11729;50.836;4.330;2023-03-31T03:27:38;11.90;99.90
23120;DHT22;11729;50.836;4.330;2023-03-31T03:30:07;11.90;99.90
23120;DHT22;11729;50.836;4.330;2023-03-31T03:32:32;11.90;99.90
23120;DHT22;11729;50.836;4.330;2023-03-31T03:34:59;11.90;99.90
23120;DHT22;11729;50.836;4.330;2023-03-31T03:37:27;12.00;99.90
23120;DHT22;11729;50.836;4.330;2023-03-31T03:39:53;11.90;99.90
23120;DHT22;11729;50.836;4.330;2023-03-31T03:42:19;11.70;99.90
23120;DHT22;11729;50.836;4.330;2023-03-31T03:44:44;11.70;99.90
23120;DHT22;11729;50.836;4.330;2023-03-31T03:47:10;11.80;99.90
23120;DHT22;11729;50.836;4.330;2023-03-31T03:49:35;11.60;99.90
23120;DHT22;11729;50.836;4.330;2023-03-31T03:52:01;11.40;99.90
23120;DHT22;11729;50.836;4.330;2023-03-31T03:54:27;11.20;99.90
23120;DHT22;11729;50.836;4.330;2023-03-31T03:56:52;11.10;99.90
23120;DHT22;11729;50.836;4.330;2023-03-31T03:59:18;11.10;99.90
23120;DHT22;11729;50.836;4.330;2023-03-31T04:01:44;11.00;99.90
23120;DHT22;11729;50.836;4.330;2023-03-31T04:04:09;11.00;99.90
23120;DHT22;11729;50.836;4.330;2023-03-31T04:06:36;10.90;99.90
23120;DHT22;11729;50.836;4.330;2023-03-31T04:09:02;10.80;99.90
23120;DHT22;11729;50.836;4.330;2023-03-31T04:11:28;10.80;99.90
23120;DHT22;11729;50.836;4.330;2023-03-31T04:13:54;10.60;99.90
23120;DHT22;11729;50.836;4.330;2023-03-31T04:16:20;10.70;99.90
23120;DHT22;11729;50.836;4.330;2023-03-31T04:18:47;10.70;99.90
23120;DHT22;11729;50.836;4.330;2023-03-31T04:21:14;10.80;99.90
23120;DHT22;11729;50.836;4.330;2023-03-31T04:23:48;10.80;99.90
23120;DHT22;11729;50.836;4.330;2023-03-31T04:26:16;10.90;99.90
23120;DHT22;11729;50.836;4.330;2023-03-31T04:28:43;10.90;99.90
23120;DHT22;11729;50.836;4.330;2023-03-31T04:31:13;10.90;99.90
23120;DHT22;11729;50.836;4.330;2023-03-31T04:33:54;11.00;99.90
23120;DHT22;11729;50.836;4.330;2023-03-31T04:36:20;11.10;99.90
23120;DHT22;11729;50.836;4.330;2023-03-31T04:38:49;11.20;99.90
23120;DHT22;11729;50.836;4.330;2023-03-31T04:41:20;11.30;99.90
23120;DHT22;11729;50.836;4.330;2023-03-31T04:43:45;11.30;99.90
23120;DHT22;11729;50.836;4.330;2023-03-31T04:46:11;11.30;99.90
23120;DHT22;11729;50.836;4.330;2023-03-31T04:48:38;11.30;99.90
23120;DHT22;11729;50.836;4.330;2023-03-31T04:51:04;11.40;99.90
23120;DHT22;11729;50.836;4.330;2023-03-31T04:53:29;11.60;99.90
23120;DHT22;11729;50.836;4.330;2023-03-31T04:55:55;11.70;99.90
23120;DHT22;11729;50.836;4.330;2023-03-31T04:58:21;11.70;99.90
23120;DHT22;11729;50.836;4.330;2023-03-31T05:00:46;11.70;99.90
23120;DHT22;11729;50.836;4.330;2023-03-31T05:03:12;11.70;99.90
23120;DHT22;11729;50.836;4.330;2023-03-31T05:05:37;11.70;99.90
23120;DHT22;11729;50.836;4.330;2023-03-31T05:08:03;11.70;99.90
23120;DHT22;11729;50.836;4.330;2023-03-31T05:10:30;11.60;99.90
23120;DHT22;11729;50.836;4.330;2023-03-31T05:12:56;11.60;99.90
23120;DHT22;11729;50.836;4.330;2023-03-31T05:15:22;11.60;99.90
23120;DHT22;11729;50.836;4.330;2023-03-31T05:17:51;11.70;99.90
23120;DHT22;11729;50.836;4.330;2023-03-31T05:20:18;11.70;99.90
23120;DHT22;11729;50.836;4.330;2023-03-31T05:22:48;11.70;99.90
23120;DHT22;11729;50.836;4.330;2023-03-31T05:25:14;11.70;99.90
23120;DHT22;11729;50.836;4.330;2023-03-31T05:27:46;11.70;99.90
23120;DHT22;11729;50.836;4.330;2023-03-31T05:30:16;11.70;99.90
23120;DHT22;11729;50.836;4.330;2023-03-31T05:32:44;11.70;99.90
23120;DHT22;11729;50.836;4.330;2023-03-31T05:35:10;11.70;99.90
23120;DHT22;11729;50.836;4.330;2023-03-31T05:37:36;11.70;99.90
23120;DHT22;11729;50.836;4.330;2023-03-31T05:40:03;11.70;99.90
23120;DHT22;11729;50.836;4.330;2023-03-31T05:42:29;11.70;99.90
23120;DHT22;11729;50.836;4.330;2023-03-31T05:44:55;11.70;99.90
23120;DHT22;11729;50.836;4.330;2023-03-31T05:47:24;11.60;99.90
23120;DHT22;11729;50.836;4.330;2023-03-31T05:49:50;11.70;99.90
23120;DHT22;11729;50.836;4.330;2023-03-31T05:52:16;11.70;99.90
23120;DHT22;11729;50.836;4.330;2023-03-31T05:54:42;11.80;99.90
23120;DHT22;11729;50.836;4.330;2023-03-31T05:57:09;11.80;99.90
23120;DHT22;11729;50.836;4.330;2023-03-31T05:59:34;11.90;99.90
23120;DHT22;11729;50.836;4.330;2023-03-31T06:02:01;11.90;99.90
23120;DHT22;11729;50.836;4.330;2023-03-31T06:04:27;11.90;99.90
23120;DHT22;11729;50.836;4.330;2023-03-31T06:06:53;11.90;99.90
23120;DHT22;11729;50.836;4.330;2023-03-31T06:09:20;12.00;99.90
23120;DHT22;11729;50.836;4.330;2023-03-31T06:11:46;12.10;99.90
23120;DHT22;11729;50.836;4.330;2023-03-31T06:14:11;12.10;99.90
23120;DHT22;11729;50.836;4.330;2023-03-31T06:16:37;12.10;99.90
23120;DHT22;11729;50.836;4.330;2023-03-31T06:19:03;12.10;99.90
23120;DHT22;11729;50.836;4.330;2023-03-31T06:21:30;12.10;99.90
23120;DHT22;11729;50.836;4.330;2023-03-31T06:23:57;12.20;99.90
23120;DHT22;11729;50.836;4.330;2023-03-31T06:26:22;12.30;99.90
23120;DHT22;11729;50.836;4.330;2023-03-31T06:28:48;12.40;99.90
23120;DHT22;11729;50.836;4.330;2023-03-31T06:31:23;12.30;99.90
23120;DHT22;11729;50.836;4.330;2023-03-31T06:33:49;12.40;99.90
23120;DHT22;11729;50.836;4.330;2023-03-31T06:36:17;12.50;99.90
23120;DHT22;11729;50.836;4.330;2023-03-31T06:38:45;12.60;99.90
23120;DHT22;11729;50.836;4.330;2023-03-31T06:41:12;12.70;99.90
23120;DHT22;11729;50.836;4.330;2023-03-31T06:43:39;12.80;99.90
23120;DHT22;11729;50.836;4.330;2023-03-31T06:46:05;12.70;99.90
23120;DHT22;11729;50.836;4.330;2023-03-31T06:48:31;12.70;99.90
23120;DHT22;11729;50.836;4.330;2023-03-31T06:50:59;12.70;99.90
23120;DHT22;11729;50.836;4.330;2023-03-31T06:53:26;12.70;99.90
23120;DHT22;11729;50.836;4.330;2023-03-31T06:55:51;12.90;99.90
23120;DHT22;11729;50.836;4.330;2023-03-31T06:58:17;12.90;99.90
23120;DHT22;11729;50.836;4.330;2023-03-31T07:00:43;12.90;99.90
23120;DHT22;11729;50.836;4.330;2023-03-31T07:03:11;13.00;99.90
23120;DHT22;11729;50.836;4.330;2023-03-31T07:05:36;13.10;99.90
23120;DHT22;11729;50.836;4.330;2023-03-31T07:08:03;13.10;99.90
23120;DHT22;11729;50.836;4.330;2023-03-31T07:10:30;13.20;99.90
23120;DHT22;11729;50.836;4.330;2023-03-31T07:12:56;13.20;99.90
23120;DHT22;11729;50.836;4.330;2023-03-31T07:15:23;13.30;99.90
23120;DHT22;11729;50.836;4.330;2023-03-31T07:17:49;13.30;99.90
23120;DHT22;11729;50.836;4.330;2023-03-31T07:20:19;13.40;99.90
23120;DHT22;11729;50.836;4.330;2023-03-31T07:22:46;13.20;99.90
23120;DHT22;11729;50.836;4.330;2023-03-31T07:25:15;13.40;99.90
23120;DHT22;11729;50.836;4.330;2023-03-31T07:27:42;13.40;99.90
23120;DHT22;11729;50.836;4.330;2023-03-31T07:30:11;13.50;99.90
23120;DHT22;11729;50.836;4.330;2023-03-31T07:32:37;13.60;99.90
23120;DHT22;11729;50.836;4.330;2023-03-31T07:35:09;13.40;99.90
23120;DHT22;11729;50.836;4.330;2023-03-31T07:37:41;13.10;99.90
23120;DHT22;11729;50.836;4.330;2023-03-31T07:40:09;13.00;99.90
23120;DHT22;11729;50.836;4.330;2023-03-31T07:42:34;12.80;99.90
23120;DHT22;11729;50.836;4.330;2023-03-31T07:45:01;12.60;99.90
23120;DHT22;11729;50.836;4.330;2023-03-31T07:47:27;12.50;99.90
23120;DHT22;11729;50.836;4.330;2023-03-31T07:49:53;12.50;99.90
23120;DHT22;11729;50.836;4.330;2023-03-31T07:52:19;12.50;99.90
23120;DHT22;11729;50.836;4.330;2023-03-31T07:54:45;12.50;99.90
23120;DHT22;11729;50.836;4.330;2023-03-31T07:57:11;12.40;99.90
23120;DHT22;11729;50.836;4.330;2023-03-31T07:59:37;12.40;99.90
23120;DHT22;11729;50.836;4.330;2023-03-31T08:02:02;12.50;99.90
23120;DHT22;11729;50.836;4.330;2023-03-31T08:04:28;12.60;99.90
23120;DHT22;11729;50.836;4.330;2023-03-31T08:06:54;12.50;99.90
23120;DHT22;11729;50.836;4.330;2023-03-31T08:09:20;12.60;99.90
23120;DHT22;11729;50.836;4.330;2023-03-31T08:11:47;12.60;99.90
23120;DHT22;11729;50.836;4.330;2023-03-31T08:14:13;12.70;99.90
23120;DHT22;11729;50.836;4.330;2023-03-31T08:16:39;12.80;99.90
23120;DHT22;11729;50.836;4.330;2023-03-31T08:19:06;12.80;99.90
23120;DHT22;11729;50.836;4.330;2023-03-31T08:21:31;12.70;99.90
23120;DHT22;11729;50.836;4.330;2023-03-31T08:23:57;12.60;99.90
23120;DHT22;11729;50.836;4.330;2023-03-31T08:26:23;12.60;99.90
23120;DHT22;11729;50.836;4.330;2023-03-31T08:28:50;12.70;99.90
23120;DHT22;11729;50.836;4.330;2023-03-31T08:31:17;12.80;99.90
23120;DHT22;11729;50.836;4.330;2023-03-31T08:33:44;12.80;99.90
23120;DHT22;11729;50.836;4.330;2023-03-31T08:36:10;12.70;99.90
23120;DHT22;11729;50.836;4.330;2023-03-31T08:38:37;12.70;99.90
23120;DHT22;11729;50.836;4.330;2023-03-31T08:41:05;12.70;99.90
23120;DHT22;11729;50.836;4.330;2023-03-31T08:43:40;12.80;99.90
23120;DHT22;11729;50.836;4.330;2023-03-31T08:46:11;12.70;99.90
23120;DHT22;11729;50.836;4.330;2023-03-31T08:48:45;12.70;99.90
23120;DHT22;11729;50.836;4.330;2023-03-31T08:51:31;12.80;99.90
23120;DHT22;11729;50.836;4.330;2023-03-31T08:54:04;12.80;99.90
23120;DHT22;11729;50.836;4.330;2023-03-31T08:56:35;12.80;99.90
23120;DHT22;11729;50.836;4.330;2023-03-31T08:59:05;12.70;99.90
23120;DHT22;11729;50.836;4.330;2023-03-31T09:01:53;12.70;99.90
23120;DHT22;11729;50.836;4.330;2023-03-31T09:16:03;12.90;99.90
23120;DHT22;11729;50.836;4.330;2023-03-31T09:18:37;12.80;99.90
23120;DHT22;11729;50.836;4.330;2023-03-31T09:24:10;12.80;99.90
23120;DHT22;11729;50.836;4.330;2023-03-31T09:26:46;12.90;99.90
23120;DHT22;11729;50.836;4.330;2023-03-31T09:32:19;12.90;99.90
23120;DHT22;11729;50.836;4.330;2023-03-31T09:34:46;12.90;99.90
23120;DHT22;11729;50.836;4.330;2023-03-31T09:37:15;12.90;99.90
23120;DHT22;11729;50.836;4.330;2023-03-31T09:39:40;13.00;99.90
23120;DHT22;11729;50.836;4.330;2023-03-31T09:42:08;13.00;99.90
23120;DHT22;11729;50.836;4.330;2023-03-31T09:44:44;12.90;99.90
23120;DHT22;11729;50.836;4.330;2023-03-31T09:47:15;12.80;99.90
23120;DHT22;11729;50.836;4.330;2023-03-31T09:49:45;12.80;99.90
23120;DHT22;11729;50.836;4.330;2023-03-31T09:52:14;12.80;99.90
23120;DHT22;11729;50.836;4.330;2023-03-31T09:54:47;12.80;99.90
23120;DHT22;11729;50.836;4.330;2023-03-31T09:57:26;12.70;99.90
23120;DHT22;11729;50.836;4.330;2023-03-31T09:59:52;12.80;99.90
23120;DHT22;11729;50.836;4.330;2023-03-31T10:02:35;12.80;99.90
23120;DHT22;11729;50.836;4.330;2023-03-31T10:05:03;12.80;99.90
23120;DHT22;11729;50.836;4.330;2023-03-31T10:07:30;12.80;99.90
23120;DHT22;11729;50.836;4.330;2023-03-31T10:09:56;12.80;99.90
23120;DHT22;11729;50.836;4.330;2023-03-31T10:12:26;12.90;99.90
23120;DHT22;11729;50.836;4.330;2023-03-31T10:14:53;12.90;99.90
23120;DHT22;11729;50.836;4.330;2023-03-31T10:17:23;13.00;99.90
23120;DHT22;11729;50.836;4.330;2023-03-31T10:19:53;13.00;99.90
23120;DHT22;11729;50.836;4.330;2023-03-31T10:24:47;12.80;99.90
23120;DHT22;11729;50.836;4.330;2023-03-31T10:27:27;12.80;99.90
23120;DHT22;11729;50.836;4.330;2023-03-31T10:30:00;12.90;99.90
23120;DHT22;11729;50.836;4.330;2023-03-31T10:32:28;12.80;99.90
23120;DHT22;11729;50.836;4.330;2023-03-31T10:34:56;12.90;99.90
23120;DHT22;11729;50.836;4.330;2023-03-31T10:37:25;13.00;99.90
23120;DHT22;11729;50.836;4.330;2023-03-31T10:40:13;13.10;99.90
23120;DHT22;11729;50.836;4.330;2023-03-31T10:42:39;13.10;99.90
23120;DHT22;11729;50.836;4.330;2023-03-31T10:45:24;13.20;99.90
23120;DHT22;11729;50.836;4.330;2023-03-31T10:47:53;13.30;99.90
23120;DHT22;11729;50.836;4.330;2023-03-31T10:50:26;13.30;99.90
23120;DHT22;11729;50.836;4.330;2023-03-31T10:52:52;13.40;99.90
23120;DHT22;11729;50.836;4.330;2023-03-31T10:55:37;13.50;99.90
23120;DHT22;11729;50.836;4.330;2023-03-31T11:06:31;13.40;99.90
23120;DHT22;11729;50.836;4.330;2023-03-31T11:28:02;13.30;99.90
23120;DHT22;11729;50.836;4.330;2023-03-31T11:36:50;13.40;99.90
23120;DHT22;11729;50.836;4.330;2023-03-31T11:42:14;13.70;99.90
23120;DHT22;11729;50.836;4.330;2023-03-31T11:44:47;13.80;99.90
23120;DHT22;11729;50.836;4.330;2023-03-31T11:47:30;14.10;99.90
23120;DHT22;11729;50.836;4.330;2023-03-31T11:50:03;14.00;99.90
23120;DHT22;11729;50.836;4.330;2023-03-31T11:52:38;14.10;99.90
23120;DHT22;11729;50.836;4.330;2023-03-31T11:55:14;14.00;99.90
23120;DHT22;11729;50.836;4.330;2023-03-31T11:57:49;13.80;99.90
23120;DHT22;11729;50.836;4.330;2023-03-31T12:03:00;13.60;99.90
23120;DHT22;11729;50.836;4.330;2023-03-31T12:05:31;13.60;99.90
23120;DHT22;11729;50.836;4.330;2023-03-31T12:11:11;13.30;99.90
23120;DHT22;11729;50.836;4.330;2023-03-31T12:13:51;12.90;99.90
23120;DHT22;11729;50.836;4.330;2023-03-31T12:21:46;12.30;99.90
23120;DHT22;11729;50.836;4.330;2023-03-31T12:24:12;12.20;99.90
23120;DHT22;11729;50.836;4.330;2023-03-31T12:26:53;12.20;99.90
23120;DHT22;11729;50.836;4.330;2023-03-31T12:31:59;12.30;99.90
23120;DHT22;11729;50.836;4.330;2023-03-31T12:34:27;12.10;99.90
23120;DHT22;11729;50.836;4.330;2023-03-31T12:55:49;12.80;99.90
23120;DHT22;11729;50.836;4.330;2023-03-31T13:01:06;13.10;99.90
23120;DHT22;11729;50.836;4.330;2023-03-31T13:03:39;13.40;99.90
23120;DHT22;11729;50.836;4.330;2023-03-31T13:06:44;13.60;99.90
23120;DHT22;11729;50.836;4.330;2023-03-31T13:09:01;13.70;99.90
23120;DHT22;11729;50.836;4.330;2023-03-31T13:14:14;13.80;99.90
23120;DHT22;11729;50.836;4.330;2023-03-31T13:16:41;13.60;99.90
23120;DHT22;11729;50.836;4.330;2023-03-31T13:19:25;13.60;99.90
23120;DHT22;11729;50.836;4.330;2023-03-31T13:21:52;13.60;99.90
23120;DHT22;11729;50.836;4.330;2023-03-31T13:24:23;13.50;99.90
23120;DHT22;11729;50.836;4.330;2023-03-31T13:26:50;13.30;99.90
23120;DHT22;11729;50.836;4.330;2023-03-31T13:29:24;13.00;99.90
23120;DHT22;11729;50.836;4.330;2023-03-31T13:34:34;12.70;99.90
23120;DHT22;11729;50.836;4.330;2023-03-31T13:39:53;12.60;99.90
23120;DHT22;11729;50.836;4.330;2023-03-31T13:47:57;12.30;99.90
23120;DHT22;11729;50.836;4.330;2023-03-31T13:53:47;12.30;99.90
23120;DHT22;11729;50.836;4.330;2023-03-31T14:07:19;11.90;99.90
23120;DHT22;11729;50.836;4.330;2023-03-31T14:09:46;11.90;99.90
23120;DHT22;11729;50.836;4.330;2023-03-31T14:14:53;11.90;99.90
23120;DHT22;11729;50.836;4.330;2023-03-31T14:17:37;11.80;99.90
23120;DHT22;11729;50.836;4.330;2023-03-31T14:20:44;11.90;99.90
23120;DHT22;11729;50.836;4.330;2023-03-31T14:23:23;12.00;99.90
23120;DHT22;11729;50.836;4.330;2023-03-31T14:26:14;12.20;99.90
23120;DHT22;11729;50.836;4.330;2023-03-31T14:31:34;12.20;99.90
23120;DHT22;11729;50.836;4.330;2023-03-31T14:36:54;12.30;99.90
23120;DHT22;11729;50.836;4.330;2023-03-31T14:39:26;12.40;99.90
23120;DHT22;11729;50.836;4.330;2023-03-31T14:41:54;12.60;99.90
23120;DHT22;11729;50.836;4.330;2023-03-31T14:44:22;12.60;99.90
23120;DHT22;11729;50.836;4.330;2023-03-31T14:46:47;12.70;99.90
23120;DHT22;11729;50.836;4.330;2023-03-31T14:49:34;12.80;99.90
23120;DHT22;11729;50.836;4.330;2023-03-31T14:52:15;12.80;99.90
23120;DHT22;11729;50.836;4.330;2023-03-31T14:54:43;12.80;99.90
23120;DHT22;11729;50.836;4.330;2023-03-31T14:57:14;12.80;99.90
23120;DHT22;11729;50.836;4.330;2023-03-31T14:59:41;12.50;99.90
23120;DHT22;11729;50.836;4.330;2023-03-31T15:02:16;12.40;99.90
23120;DHT22;11729;50.836;4.330;2023-03-31T15:04:46;12.30;99.90
23120;DHT22;11729;50.836;4.330;2023-03-31T15:07:14;12.10;99.90
23120;DHT22;11729;50.836;4.330;2023-03-31T15:09:45;12.10;99.90
23120;DHT22;11729;50.836;4.330;2023-03-31T15:12:14;12.00;99.90
23120;DHT22;11729;50.836;4.330;2023-03-31T15:14:47;12.10;99.90
23120;DHT22;11729;50.836;4.330;2023-03-31T15:17:22;12.10;99.90
23120;DHT22;11729;50.836;4.330;2023-03-31T15:19:56;12.10;99.90
23120;DHT22;11729;50.836;4.330;2023-03-31T15:22:24;12.20;99.90
23120;DHT22;11729;50.836;4.330;2023-03-31T15:24:51;12.30;99.90
23120;DHT22;11729;50.836;4.330;2023-03-31T15:27:34;12.30;99.90
23120;DHT22;11729;50.836;4.330;2023-03-31T15:30:03;12.50;99.90
23120;DHT22;11729;50.836;4.330;2023-03-31T15:32:33;12.70;99.90
23120;DHT22;11729;50.836;4.330;2023-03-31T15:35:00;12.70;99.90
23120;DHT22;11729;50.836;4.330;2023-03-31T15:37:34;12.70;99.90
23120;DHT22;11729;50.836;4.330;2023-03-31T15:40:03;12.70;99.90
23120;DHT22;11729;50.836;4.330;2023-03-31T15:42:33;12.50;99.90
23120;DHT22;11729;50.836;4.330;2023-03-31T15:48:04;12.60;99.90
23120;DHT22;11729;50.836;4.330;2023-03-31T15:50:31;12.70;99.90
23120;DHT22;11729;50.836;4.330;2023-03-31T15:52:58;12.80;99.90
23120;DHT22;11729;50.836;4.330;2023-03-31T15:57:53;13.00;99.90
23120;DHT22;11729;50.836;4.330;2023-03-31T16:03:34;12.80;99.90
23120;DHT22;11729;50.836;4.330;2023-03-31T16:09:04;12.80;99.90
23120;DHT22;11729;50.836;4.330;2023-03-31T16:14:41;12.60;99.90
23120;DHT22;11729;50.836;4.330;2023-03-31T16:17:05;12.60;99.90
23120;DHT22;11729;50.836;4.330;2023-03-31T16:19:42;12.50;99.90
23120;DHT22;11729;50.836;4.330;2023-03-31T16:22:15;12.40;99.90
23120;DHT22;11729;50.836;4.330;2023-03-31T16:24:42;12.30;99.90
23120;DHT22;11729;50.836;4.330;2023-03-31T16:27:08;12.20;99.90
23120;DHT22;11729;50.836;4.330;2023-03-31T16:29:35;12.10;99.90
23120;DHT22;11729;50.836;4.330;2023-03-31T16:32:19;12.00;99.90
23120;DHT22;11729;50.836;4.330;2023-03-31T16:35:00;11.80;99.90
23120;DHT22;11729;50.836;4.330;2023-03-31T16:37:26;11.80;99.90
23120;DHT22;11729;50.836;4.330;2023-03-31T16:39:52;11.80;99.90
23120;DHT22;11729;50.836;4.330;2023-03-31T16:42:19;11.80;99.90
23120;DHT22;11729;50.836;4.330;2023-03-31T16:44:45;11.80;99.90
23120;DHT22;11729;50.836;4.330;2023-03-31T16:47:11;11.70;99.90
23120;DHT22;11729;50.836;4.330;2023-03-31T16:49:37;11.80;99.90
23120;DHT22;11729;50.836;4.330;2023-03-31T16:52:03;11.80;99.90
23120;DHT22;11729;50.836;4.330;2023-03-31T16:54:30;11.70;99.90
23120;DHT22;11729;50.836;4.330;2023-03-31T16:56:56;11.70;99.90
23120;DHT22;11729;50.836;4.330;2023-03-31T16:59:22;11.70;99.90
23120;DHT22;11729;50.836;4.330;2023-03-31T17:01:48;11.50;99.90
23120;DHT22;11729;50.836;4.330;2023-03-31T17:04:13;11.60;99.90
23120;DHT22;11729;50.836;4.330;2023-03-31T17:06:39;11.60;99.90
23120;DHT22;11729;50.836;4.330;2023-03-31T17:09:04;11.60;99.90
23120;DHT22;11729;50.836;4.330;2023-03-31T17:11:30;11.70;99.90
23120;DHT22;11729;50.836;4.330;2023-03-31T17:13:57;11.80;99.90
23120;DHT22;11729;50.836;4.330;2023-03-31T17:16:24;11.80;99.90
23120;DHT22;11729;50.836;4.330;2023-03-31T17:18:50;11.90;99.90
23120;DHT22;11729;50.836;4.330;2023-03-31T17:21:18;11.90;99.90
23120;DHT22;11729;50.836;4.330;2023-03-31T17:23:45;11.90;99.90
23120;DHT22;11729;50.836;4.330;2023-03-31T17:26:12;11.90;99.90
23120;DHT22;11729;50.836;4.330;2023-03-31T17:28:38;11.80;99.90
23120;DHT22;11729;50.836;4.330;2023-03-31T17:31:14;11.60;99.90
23120;DHT22;11729;50.836;4.330;2023-03-31T17:33:40;11.60;99.90
23120;DHT22;11729;50.836;4.330;2023-03-31T17:36:06;11.60;99.90
23120;DHT22;11729;50.836;4.330;2023-03-31T17:38:32;11.50;99.90
23120;DHT22;11729;50.836;4.330;2023-03-31T17:41:06;11.50;99.90
23120;DHT22;11729;50.836;4.330;2023-03-31T17:43:32;11.30;99.90
23120;DHT22;11729;50.836;4.330;2023-03-31T17:46:09;11.30;99.90
23120;DHT22;11729;50.836;4.330;2023-03-31T17:48:37;11.30;99.90
23120;DHT22;11729;50.836;4.330;2023-03-31T17:51:11;11.30;99.90
23120;DHT22;11729;50.836;4.330;2023-03-31T17:53:42;11.20;99.90
23120;DHT22;11729;50.836;4.330;2023-03-31T17:56:09;11.20;99.90
23120;DHT22;11729;50.836;4.330;2023-03-31T17:58:36;11.30;99.90
23120;DHT22;11729;50.836;4.330;2023-03-31T18:01:06;11.30;99.90
23120;DHT22;11729;50.836;4.330;2023-03-31T18:03:33;11.20;99.90
23120;DHT22;11729;50.836;4.330;2023-03-31T18:06:10;11.20;99.90
23120;DHT22;11729;50.836;4.330;2023-03-31T18:08:37;11.20;99.90
23120;DHT22;11729;50.836;4.330;2023-03-31T18:11:05;11.20;99.90
23120;DHT22;11729;50.836;4.330;2023-03-31T18:13:32;11.10;99.90
23120;DHT22;11729;50.836;4.330;2023-03-31T18:15:59;11.10;99.90
23120;DHT22;11729;50.836;4.330;2023-03-31T18:18:25;11.10;99.90
23120;DHT22;11729;50.836;4.330;2023-03-31T18:20:52;11.10;99.90
23120;DHT22;11729;50.836;4.330;2023-03-31T18:23:18;11.10;99.90
23120;DHT22;11729;50.836;4.330;2023-03-31T18:25:44;11.10;99.90
23120;DHT22;11729;50.836;4.330;2023-03-31T18:28:15;11.20;99.90
23120;DHT22;11729;50.836;4.330;2023-03-31T18:30:41;11.10;99.90
23120;DHT22;11729;50.836;4.330;2023-03-31T18:33:08;11.10;99.90
23120;DHT22;11729;50.836;4.330;2023-03-31T18:35:34;11.00;99.90
23120;DHT22;11729;50.836;4.330;2023-03-31T18:38:00;11.00;99.90
23120;DHT22;11729;50.836;4.330;2023-03-31T18:40:26;11.00;99.90
23120;DHT22;11729;50.836;4.330;2023-03-31T18:42:51;11.10;99.90
23120;DHT22;11729;50.836;4.330;2023-03-31T18:45:17;11.00;99.90
23120;DHT22;11729;50.836;4.330;2023-03-31T18:47:43;11.10;99.90
23120;DHT22;11729;50.836;4.330;2023-03-31T18:50:09;11.10;99.90
23120;DHT22;11729;50.836;4.330;2023-03-31T18:52:35;11.10;99.90
23120;DHT22;11729;50.836;4.330;2023-03-31T18:55:02;11.00;99.90
23120;DHT22;11729;50.836;4.330;2023-03-31T18:57:27;11.00;99.90